sensor_id;sensor_type;location;lat;lon;timestamp;P1;durP1;ratioP1;P2;durP2;ratioP2
83717;SDS011;73701;52.234;21.288;2023-11-22T03:02:41;6.82;;;4.32;;
83717;SDS011;73701;52.234;21.288;2023-11-22T03:05:07;4.80;;;3.85;;
83717;SDS011;73701;52.234;21.288;2023-11-22T03:07:53;7.65;;;3.65;;
83717;SDS011;73701;52.234;21.288;2023-11-22T03:10:38;6.47;;;3.95;;
83717;SDS011;73701;52.234;21.288;2023-11-22T04:09:59;8.40;;;3.90;;
83717;SDS011;73701;52.234;21.288;2023-11-22T13:03:45;12.75;;;6.70;;
83717;SDS011;73701;52.234;21.288;2023-11-22T13:06:11;12.00;;;6.18;;
83717;SDS011;73701;52.234;21.288;2023-11-22T13:08:36;25.33;;;9.87;;
83717;SDS011;73701;52.234;21.288;2023-11-22T13:11:01;9.73;;;5.70;;
83717;SDS011;73701;52.234;21.288;2023-11-22T13:13:27;8.68;;;4.72;;
83717;SDS011;73701;52.234;21.288;2023-11-22T13:15:52;8.57;;;5.25;;
83717;SDS011;73701;52.234;21.288;2023-11-22T13:18:18;8.32;;;5.20;;
83717;SDS011;73701;52.234;21.288;2023-11-22T13:20:44;48.55;;;17.85;;
83717;SDS011;73701;52.234;21.288;2023-11-22T13:23:10;27.00;;;14.00;;
83717;SDS011;73701;52.234;21.288;2023-11-22T13:25:37;10.70;;;6.30;;
83717;SDS011;73701;52.234;21.288;2023-11-22T13:28:02;12.68;;;7.85;;
83717;SDS011;73701;52.234;21.288;2023-11-22T13:30:29;9.80;;;5.10;;
83717;SDS011;73701;52.234;21.288;2023-11-22T13:32:55;9.05;;;4.38;;
83717;SDS011;73701;52.234;21.288;2023-11-22T13:35:26;11.80;;;6.50;;
83717;SDS011;73701;52.234;21.288;2023-11-22T13:37:56;9.95;;;5.88;;
83717;SDS011;73701;52.234;21.288;2023-11-22T13:40:23;15.57;;;9.63;;
83717;SDS011;73701;52.234;21.288;2023-11-22T13:42:50;8.88;;;5.97;;
83717;SDS011;73701;52.234;21.288;2023-11-22T13:45:18;8.88;;;4.15;;
83717;SDS011;73701;52.234;21.288;2023-11-22T13:47:44;6.30;;;4.03;;
83717;SDS011;73701;52.234;21.288;2023-11-22T13:52:50;11.77;;;8.27;;
83717;SDS011;73701;52.234;21.288;2023-11-22T13:55:16;9.10;;;5.80;;
83717;SDS011;73701;52.234;21.288;2023-11-22T13:57:52;20.58;;;12.10;;
83717;SDS011;73701;52.234;21.288;2023-11-22T14:00:20;11.43;;;8.15;;
83717;SDS011;73701;52.234;21.288;2023-11-22T14:02:52;11.35;;;6.22;;
83717;SDS011;73701;52.234;21.288;2023-11-22T14:05:20;10.85;;;6.53;;
83717;SDS011;73701;52.234;21.288;2023-11-22T14:07:46;17.20;;;11.65;;
83717;SDS011;73701;52.234;21.288;2023-11-22T14:10:13;9.73;;;7.22;;
83717;SDS011;73701;52.234;21.288;2023-11-22T14:12:41;15.18;;;8.20;;
83717;SDS011;73701;52.234;21.288;2023-11-22T14:15:08;13.57;;;8.75;;
83717;SDS011;73701;52.234;21.288;2023-11-22T14:17:34;22.73;;;12.15;;
83717;SDS011;73701;52.234;21.288;2023-11-22T14:20:00;24.65;;;13.60;;
83717;SDS011;73701;52.234;21.288;2023-11-22T14:22:26;24.52;;;14.27;;
83717;SDS011;73701;52.234;21.288;2023-11-22T14:24:52;24.35;;;13.85;;
83717;SDS011;73701;52.234;21.288;2023-11-22T14:27:17;23.10;;;15.18;;
83717;SDS011;73701;52.234;21.288;2023-11-22T14:29:44;23.67;;;12.35;;
83717;SDS011;73701;52.234;21.288;2023-11-22T14:32:13;30.67;;;13.30;;
83717;SDS011;73701;52.234;21.288;2023-11-22T14:34:38;22.45;;;13.38;;
83717;SDS011;73701;52.234;21.288;2023-11-22T14:37:05;37.78;;;17.50;;
83717;SDS011;73701;52.234;21.288;2023-11-22T14:39:30;34.20;;;14.70;;
83717;SDS011;73701;52.234;21.288;2023-11-22T14:41:56;32.58;;;16.83;;
83717;SDS011;73701;52.234;21.288;2023-11-22T14:44:21;42.80;;;17.67;;
83717;SDS011;73701;52.234;21.288;2023-11-22T14:46:47;48.20;;;21.50;;
83717;SDS011;73701;52.234;21.288;2023-11-22T14:49:13;38.88;;;18.20;;
83717;SDS011;73701;52.234;21.288;2023-11-22T14:51:39;45.05;;;18.63;;
83717;SDS011;73701;52.234;21.288;2023-11-22T14:54:04;44.20;;;18.98;;
83717;SDS011;73701;52.234;21.288;2023-11-22T14:56:30;39.70;;;21.07;;
83717;SDS011;73701;52.234;21.288;2023-11-22T14:58:55;38.47;;;19.40;;
83717;SDS011;73701;52.234;21.288;2023-11-22T15:01:20;31.97;;;16.47;;
83717;SDS011;73701;52.234;21.288;2023-11-22T15:03:46;72.07;;;25.25;;
83717;SDS011;73701;52.234;21.288;2023-11-22T15:06:12;125.32;;;35.00;;
83717;SDS011;73701;52.234;21.288;2023-11-22T15:08:38;85.63;;;26.38;;
83717;SDS011;73701;52.234;21.288;2023-11-22T15:11:03;52.67;;;17.95;;
83717;SDS011;73701;52.234;21.288;2023-11-22T15:13:30;65.38;;;19.67;;
83717;SDS011;73701;52.234;21.288;2023-11-22T15:15:55;38.60;;;16.42;;
83717;SDS011;73701;52.234;21.288;2023-11-22T15:18:21;44.45;;;17.70;;
83717;SDS011;73701;52.234;21.288;2023-11-22T15:20:47;56.15;;;21.05;;
83717;SDS011;73701;52.234;21.288;2023-11-22T15:23:12;58.17;;;22.37;;
83717;SDS011;73701;52.234;21.288;2023-11-22T15:25:38;51.07;;;23.67;;
83717;SDS011;73701;52.234;21.288;2023-11-22T15:28:03;58.55;;;20.52;;
83717;SDS011;73701;52.234;21.288;2023-11-22T15:30:29;45.20;;;18.67;;
83717;SDS011;73701;52.234;21.288;2023-11-22T15:32:55;58.58;;;23.23;;
83717;SDS011;73701;52.234;21.288;2023-11-22T15:35:20;46.40;;;21.53;;
83717;SDS011;73701;52.234;21.288;2023-11-22T15:37:45;49.97;;;22.90;;
83717;SDS011;73701;52.234;21.288;2023-11-22T15:40:11;54.90;;;23.95;;
83717;SDS011;73701;52.234;21.288;2023-11-22T15:42:37;61.75;;;27.25;;
83717;SDS011;73701;52.234;21.288;2023-11-22T15:45:03;60.85;;;26.58;;
83717;SDS011;73701;52.234;21.288;2023-11-22T15:47:29;49.38;;;21.05;;
83717;SDS011;73701;52.234;21.288;2023-11-22T15:49:54;49.75;;;19.15;;
83717;SDS011;73701;52.234;21.288;2023-11-22T15:52:20;46.22;;;22.55;;
83717;SDS011;73701;52.234;21.288;2023-11-22T15:54:46;82.45;;;35.55;;
83717;SDS011;73701;52.234;21.288;2023-11-22T15:57:12;54.13;;;27.90;;
83717;SDS011;73701;52.234;21.288;2023-11-22T15:59:38;55.95;;;27.10;;
83717;SDS011;73701;52.234;21.288;2023-11-22T16:02:04;58.85;;;28.35;;
83717;SDS011;73701;52.234;21.288;2023-11-22T16:04:30;106.65;;;46.40;;
83717;SDS011;73701;52.234;21.288;2023-11-22T16:06:55;89.05;;;40.50;;
83717;SDS011;73701;52.234;21.288;2023-11-22T16:09:21;74.57;;;34.80;;
83717;SDS011;73701;52.234;21.288;2023-11-22T16:11:46;43.53;;;22.35;;
83717;SDS011;73701;52.234;21.288;2023-11-22T16:14:12;34.10;;;18.58;;
83717;SDS011;73701;52.234;21.288;2023-11-22T16:16:40;31.05;;;16.05;;
83717;SDS011;73701;52.234;21.288;2023-11-22T16:19:05;33.28;;;16.65;;
83717;SDS011;73701;52.234;21.288;2023-11-22T16:21:31;31.08;;;14.38;;
83717;SDS011;73701;52.234;21.288;2023-11-22T16:23:57;26.60;;;13.18;;
83717;SDS011;73701;52.234;21.288;2023-11-22T16:26:23;32.75;;;13.23;;
83717;SDS011;73701;52.234;21.288;2023-11-22T16:28:49;28.80;;;13.95;;
83717;SDS011;73701;52.234;21.288;2023-11-22T16:31:15;27.08;;;14.23;;
83717;SDS011;73701;52.234;21.288;2023-11-22T16:33:41;37.88;;;14.82;;
83717;SDS011;73701;52.234;21.288;2023-11-22T16:36:07;33.67;;;15.90;;
83717;SDS011;73701;52.234;21.288;2023-11-22T16:38:33;44.15;;;21.95;;
83717;SDS011;73701;52.234;21.288;2023-11-22T16:40:58;49.35;;;23.70;;
83717;SDS011;73701;52.234;21.288;2023-11-22T16:43:24;60.97;;;29.98;;
83717;SDS011;73701;52.234;21.288;2023-11-22T16:45:50;78.95;;;32.03;;
83717;SDS011;73701;52.234;21.288;2023-11-22T16:48:15;136.52;;;48.58;;
83717;SDS011;73701;52.234;21.288;2023-11-22T16:50:41;256.30;;;80.28;;
83717;SDS011;73701;52.234;21.288;2023-11-22T16:53:06;137.27;;;48.75;;
83717;SDS011;73701;52.234;21.288;2023-11-22T16:55:33;97.32;;;34.42;;
83717;SDS011;73701;52.234;21.288;2023-11-22T16:57:59;40.97;;;20.83;;
83717;SDS011;73701;52.234;21.288;2023-11-22T17:00:25;31.50;;;15.05;;
83717;SDS011;73701;52.234;21.288;2023-11-22T17:02:51;30.35;;;16.40;;
83717;SDS011;73701;52.234;21.288;2023-11-22T17:05:17;50.58;;;22.73;;
83717;SDS011;73701;52.234;21.288;2023-11-22T17:07:44;37.47;;;22.15;;
83717;SDS011;73701;52.234;21.288;2023-11-22T17:10:09;30.02;;;16.95;;
83717;SDS011;73701;52.234;21.288;2023-11-22T17:12:37;37.67;;;20.30;;
83717;SDS011;73701;52.234;21.288;2023-11-22T17:15:02;44.93;;;20.73;;
83717;SDS011;73701;52.234;21.288;2023-11-22T17:17:30;44.47;;;24.15;;
83717;SDS011;73701;52.234;21.288;2023-11-22T17:19:55;35.95;;;19.73;;
83717;SDS011;73701;52.234;21.288;2023-11-22T17:22:21;30.27;;;16.35;;
83717;SDS011;73701;52.234;21.288;2023-11-22T17:24:46;25.97;;;15.70;;
83717;SDS011;73701;52.234;21.288;2023-11-22T17:27:11;27.50;;;14.23;;
83717;SDS011;73701;52.234;21.288;2023-11-22T17:29:37;39.30;;;14.33;;
83717;SDS011;73701;52.234;21.288;2023-11-22T17:32:02;32.33;;;15.73;;
83717;SDS011;73701;52.234;21.288;2023-11-22T17:34:28;39.30;;;16.27;;
83717;SDS011;73701;52.234;21.288;2023-11-22T17:36:57;25.77;;;12.18;;
83717;SDS011;73701;52.234;21.288;2023-11-22T17:39:23;27.15;;;12.82;;
83717;SDS011;73701;52.234;21.288;2023-11-22T17:41:49;36.75;;;14.85;;
83717;SDS011;73701;52.234;21.288;2023-11-22T17:44:14;35.57;;;17.23;;
83717;SDS011;73701;52.234;21.288;2023-11-22T17:46:39;32.50;;;16.40;;
83717;SDS011;73701;52.234;21.288;2023-11-22T17:49:06;31.33;;;16.02;;
83717;SDS011;73701;52.234;21.288;2023-11-22T17:51:32;41.83;;;18.10;;
83717;SDS011;73701;52.234;21.288;2023-11-22T17:53:57;42.47;;;17.90;;
83717;SDS011;73701;52.234;21.288;2023-11-22T17:56:23;37.83;;;15.70;;
83717;SDS011;73701;52.234;21.288;2023-11-22T17:58:48;40.20;;;17.90;;
83717;SDS011;73701;52.234;21.288;2023-11-22T18:01:13;36.53;;;17.00;;
83717;SDS011;73701;52.234;21.288;2023-11-22T18:03:39;43.30;;;19.23;;
83717;SDS011;73701;52.234;21.288;2023-11-22T18:06:04;39.43;;;16.80;;
83717;SDS011;73701;52.234;21.288;2023-11-22T18:08:30;33.70;;;15.68;;
83717;SDS011;73701;52.234;21.288;2023-11-22T18:10:55;28.40;;;11.80;;
83717;SDS011;73701;52.234;21.288;2023-11-22T18:13:20;28.00;;;12.13;;
83717;SDS011;73701;52.234;21.288;2023-11-22T18:15:46;24.83;;;12.68;;
83717;SDS011;73701;52.234;21.288;2023-11-22T18:18:11;20.87;;;11.67;;
83717;SDS011;73701;52.234;21.288;2023-11-22T18:20:37;20.67;;;11.43;;
83717;SDS011;73701;52.234;21.288;2023-11-22T18:23:05;21.15;;;11.00;;
83717;SDS011;73701;52.234;21.288;2023-11-22T18:25:31;23.10;;;11.77;;
83717;SDS011;73701;52.234;21.288;2023-11-22T18:27:57;21.60;;;12.60;;
83717;SDS011;73701;52.234;21.288;2023-11-22T18:30:22;68.17;;;23.73;;
83717;SDS011;73701;52.234;21.288;2023-11-22T18:32:48;53.78;;;20.63;;
83717;SDS011;73701;52.234;21.288;2023-11-22T18:35:13;31.30;;;18.93;;
83717;SDS011;73701;52.234;21.288;2023-11-22T18:37:39;37.13;;;15.82;;
83717;SDS011;73701;52.234;21.288;2023-11-22T18:40:06;29.27;;;15.45;;
83717;SDS011;73701;52.234;21.288;2023-11-22T18:42:33;31.48;;;16.33;;
83717;SDS011;73701;52.234;21.288;2023-11-22T18:45:00;36.25;;;16.27;;
83717;SDS011;73701;52.234;21.288;2023-11-22T18:47:26;39.75;;;16.88;;
83717;SDS011;73701;52.234;21.288;2023-11-22T18:49:51;32.43;;;17.27;;
83717;SDS011;73701;52.234;21.288;2023-11-22T18:52:18;29.45;;;14.82;;
83717;SDS011;73701;52.234;21.288;2023-11-22T18:54:44;30.10;;;14.27;;
83717;SDS011;73701;52.234;21.288;2023-11-22T18:57:09;30.37;;;15.17;;
83717;SDS011;73701;52.234;21.288;2023-11-22T18:59:34;28.80;;;15.02;;
83717;SDS011;73701;52.234;21.288;2023-11-22T19:02:00;36.85;;;17.05;;
83717;SDS011;73701;52.234;21.288;2023-11-22T19:04:27;35.88;;;15.57;;
83717;SDS011;73701;52.234;21.288;2023-11-22T19:06:53;31.05;;;15.27;;
83717;SDS011;73701;52.234;21.288;2023-11-22T19:09:18;29.48;;;14.45;;
83717;SDS011;73701;52.234;21.288;2023-11-22T19:11:44;32.22;;;14.80;;
83717;SDS011;73701;52.234;21.288;2023-11-22T19:14:10;38.35;;;20.95;;
83717;SDS011;73701;52.234;21.288;2023-11-22T19:16:36;32.95;;;18.13;;
83717;SDS011;73701;52.234;21.288;2023-11-22T19:19:02;34.70;;;18.55;;
83717;SDS011;73701;52.234;21.288;2023-11-22T19:21:27;46.92;;;21.17;;
83717;SDS011;73701;52.234;21.288;2023-11-22T19:23:53;25.73;;;15.45;;
83717;SDS011;73701;52.234;21.288;2023-11-22T19:26:24;28.48;;;14.98;;
83717;SDS011;73701;52.234;21.288;2023-11-22T19:28:50;27.48;;;15.15;;
83717;SDS011;73701;52.234;21.288;2023-11-22T19:31:16;34.60;;;17.17;;
83717;SDS011;73701;52.234;21.288;2023-11-22T19:33:41;33.88;;;19.52;;
83717;SDS011;73701;52.234;21.288;2023-11-22T19:36:08;31.48;;;18.40;;
83717;SDS011;73701;52.234;21.288;2023-11-22T19:38:34;34.97;;;18.35;;
83717;SDS011;73701;52.234;21.288;2023-11-22T19:40:59;41.25;;;17.75;;
83717;SDS011;73701;52.234;21.288;2023-11-22T19:43:25;36.25;;;19.13;;
83717;SDS011;73701;52.234;21.288;2023-11-22T19:45:50;36.33;;;18.00;;
83717;SDS011;73701;52.234;21.288;2023-11-22T19:48:16;36.88;;;17.75;;
83717;SDS011;73701;52.234;21.288;2023-11-22T19:50:42;46.97;;;22.67;;
83717;SDS011;73701;52.234;21.288;2023-11-22T19:53:07;48.28;;;22.00;;
83717;SDS011;73701;52.234;21.288;2023-11-22T19:55:33;51.08;;;22.08;;
83717;SDS011;73701;52.234;21.288;2023-11-22T19:57:59;49.08;;;21.13;;
83717;SDS011;73701;52.234;21.288;2023-11-22T20:00:26;39.47;;;20.55;;
83717;SDS011;73701;52.234;21.288;2023-11-22T20:02:52;43.05;;;19.85;;
83717;SDS011;73701;52.234;21.288;2023-11-22T20:05:17;37.20;;;20.27;;
83717;SDS011;73701;52.234;21.288;2023-11-22T20:07:42;33.03;;;17.07;;
83717;SDS011;73701;52.234;21.288;2023-11-22T20:10:08;29.73;;;14.67;;
83717;SDS011;73701;52.234;21.288;2023-11-22T20:12:33;26.55;;;12.57;;
83717;SDS011;73701;52.234;21.288;2023-11-22T20:14:59;28.60;;;14.02;;
83717;SDS011;73701;52.234;21.288;2023-11-22T20:17:24;29.80;;;14.40;;
83717;SDS011;73701;52.234;21.288;2023-11-22T20:19:50;32.45;;;15.15;;
83717;SDS011;73701;52.234;21.288;2023-11-22T20:22:16;28.77;;;13.93;;
83717;SDS011;73701;52.234;21.288;2023-11-22T20:24:41;38.30;;;15.00;;
83717;SDS011;73701;52.234;21.288;2023-11-22T20:27:07;26.10;;;12.73;;
83717;SDS011;73701;52.234;21.288;2023-11-22T20:29:32;30.58;;;14.07;;
83717;SDS011;73701;52.234;21.288;2023-11-22T20:31:58;22.52;;;12.80;;
83717;SDS011;73701;52.234;21.288;2023-11-22T20:34:23;32.08;;;16.30;;
83717;SDS011;73701;52.234;21.288;2023-11-22T20:36:48;34.10;;;16.73;;
83717;SDS011;73701;52.234;21.288;2023-11-22T20:39:15;51.45;;;21.02;;
83717;SDS011;73701;52.234;21.288;2023-11-22T20:41:44;48.10;;;22.67;;
83717;SDS011;73701;52.234;21.288;2023-11-22T20:44:11;34.42;;;18.67;;
83717;SDS011;73701;52.234;21.288;2023-11-22T20:46:39;35.90;;;18.80;;
83717;SDS011;73701;52.234;21.288;2023-11-22T20:49:07;34.63;;;18.27;;
83717;SDS011;73701;52.234;21.288;2023-11-22T20:51:34;34.47;;;17.17;;
83717;SDS011;73701;52.234;21.288;2023-11-22T20:54:00;30.80;;;14.68;;
83717;SDS011;73701;52.234;21.288;2023-11-22T20:56:26;24.48;;;12.57;;
83717;SDS011;73701;52.234;21.288;2023-11-22T20:58:52;25.73;;;13.73;;
83717;SDS011;73701;52.234;21.288;2023-11-22T21:01:18;33.03;;;14.35;;
83717;SDS011;73701;52.234;21.288;2023-11-22T21:03:43;27.77;;;13.40;;
83717;SDS011;73701;52.234;21.288;2023-11-22T21:06:09;24.83;;;13.60;;
83717;SDS011;73701;52.234;21.288;2023-11-22T21:08:34;27.55;;;13.30;;
83717;SDS011;73701;52.234;21.288;2023-11-22T21:10:59;26.60;;;12.63;;
83717;SDS011;73701;52.234;21.288;2023-11-22T21:13:25;24.83;;;12.65;;
83717;SDS011;73701;52.234;21.288;2023-11-22T21:15:50;25.48;;;13.90;;
83717;SDS011;73701;52.234;21.288;2023-11-22T21:18:16;22.10;;;13.07;;
83717;SDS011;73701;52.234;21.288;2023-11-22T21:20:41;22.63;;;12.33;;
83717;SDS011;73701;52.234;21.288;2023-11-22T21:23:06;34.50;;;15.82;;
83717;SDS011;73701;52.234;21.288;2023-11-22T21:25:32;28.88;;;14.00;;
83717;SDS011;73701;52.234;21.288;2023-11-22T21:27:58;26.10;;;13.98;;
83717;SDS011;73701;52.234;21.288;2023-11-22T21:30:23;28.00;;;14.65;;
83717;SDS011;73701;52.234;21.288;2023-11-22T21:32:49;30.60;;;13.93;;
83717;SDS011;73701;52.234;21.288;2023-11-22T21:35:15;25.98;;;13.18;;
83717;SDS011;73701;52.234;21.288;2023-11-22T21:37:40;29.00;;;14.02;;
83717;SDS011;73701;52.234;21.288;2023-11-22T21:40:05;29.10;;;14.65;;
83717;SDS011;73701;52.234;21.288;2023-11-22T21:42:35;31.70;;;14.43;;
83717;SDS011;73701;52.234;21.288;2023-11-22T21:45:00;40.95;;;17.83;;
83717;SDS011;73701;52.234;21.288;2023-11-22T21:47:29;31.77;;;16.98;;
83717;SDS011;73701;52.234;21.288;2023-11-22T21:49:55;33.25;;;17.60;;
83717;SDS011;73701;52.234;21.288;2023-11-22T21:52:20;38.57;;;17.97;;
83717;SDS011;73701;52.234;21.288;2023-11-22T21:54:46;34.60;;;17.42;;
83717;SDS011;73701;52.234;21.288;2023-11-22T21:57:11;32.83;;;16.73;;
83717;SDS011;73701;52.234;21.288;2023-11-22T21:59:36;31.63;;;15.50;;
83717;SDS011;73701;52.234;21.288;2023-11-22T22:02:02;37.75;;;18.80;;
83717;SDS011;73701;52.234;21.288;2023-11-22T22:04:28;34.03;;;17.85;;
83717;SDS011;73701;52.234;21.288;2023-11-22T22:06:53;33.22;;;15.82;;
83717;SDS011;73701;52.234;21.288;2023-11-22T22:09:19;38.92;;;17.20;;
83717;SDS011;73701;52.234;21.288;2023-11-22T22:11:44;43.60;;;17.90;;
83717;SDS011;73701;52.234;21.288;2023-11-22T22:14:09;38.20;;;18.00;;
83717;SDS011;73701;52.234;21.288;2023-11-22T22:16:35;36.00;;;15.82;;
83717;SDS011;73701;52.234;21.288;2023-11-22T22:19:00;37.28;;;18.50;;
83717;SDS011;73701;52.234;21.288;2023-11-22T22:21:26;36.90;;;17.35;;
83717;SDS011;73701;52.234;21.288;2023-11-22T22:23:53;39.60;;;19.45;;
83717;SDS011;73701;52.234;21.288;2023-11-22T22:26:18;38.22;;;19.02;;
83717;SDS011;73701;52.234;21.288;2023-11-22T22:28:44;38.72;;;18.73;;
83717;SDS011;73701;52.234;21.288;2023-11-22T22:31:11;36.15;;;16.20;;
83717;SDS011;73701;52.234;21.288;2023-11-22T22:33:37;36.63;;;17.52;;
83717;SDS011;73701;52.234;21.288;2023-11-22T22:36:03;35.25;;;16.42;;
83717;SDS011;73701;52.234;21.288;2023-11-22T22:38:28;32.90;;;18.08;;
83717;SDS011;73701;52.234;21.288;2023-11-22T22:40:54;38.58;;;18.90;;
83717;SDS011;73701;52.234;21.288;2023-11-22T22:43:20;38.50;;;16.33;;
83717;SDS011;73701;52.234;21.288;2023-11-22T22:45:45;33.90;;;14.73;;
83717;SDS011;73701;52.234;21.288;2023-11-22T22:48:10;34.45;;;17.17;;
83717;SDS011;73701;52.234;21.288;2023-11-22T22:50:36;33.47;;;17.23;;
83717;SDS011;73701;52.234;21.288;2023-11-22T22:53:01;29.50;;;14.82;;
83717;SDS011;73701;52.234;21.288;2023-11-22T22:55:26;26.88;;;14.30;;
83717;SDS011;73701;52.234;21.288;2023-11-22T22:57:52;30.63;;;15.75;;
83717;SDS011;73701;52.234;21.288;2023-11-22T23:00:17;30.60;;;15.18;;
83717;SDS011;73701;52.234;21.288;2023-11-22T23:03:15;33.60;;;16.52;;
83717;SDS011;73701;52.234;21.288;2023-11-22T23:05:41;32.72;;;16.13;;
83717;SDS011;73701;52.234;21.288;2023-11-22T23:08:06;36.72;;;17.42;;
83717;SDS011;73701;52.234;21.288;2023-11-22T23:10:34;34.33;;;17.33;;
83717;SDS011;73701;52.234;21.288;2023-11-22T23:13:00;33.00;;;15.85;;
83717;SDS011;73701;52.234;21.288;2023-11-22T23:15:25;30.92;;;15.57;;
83717;SDS011;73701;52.234;21.288;2023-11-22T23:17:51;32.85;;;15.18;;
83717;SDS011;73701;52.234;21.288;2023-11-22T23:20:18;31.90;;;15.55;;
83717;SDS011;73701;52.234;21.288;2023-11-22T23:22:43;32.08;;;16.90;;
83717;SDS011;73701;52.234;21.288;2023-11-22T23:25:09;36.50;;;15.50;;
83717;SDS011;73701;52.234;21.288;2023-11-22T23:27:36;31.38;;;15.35;;
83717;SDS011;73701;52.234;21.288;2023-11-22T23:30:02;36.10;;;16.83;;
83717;SDS011;73701;52.234;21.288;2023-11-22T23:32:30;36.65;;;16.80;;
83717;SDS011;73701;52.234;21.288;2023-11-22T23:34:56;30.80;;;16.15;;
83717;SDS011;73701;52.234;21.288;2023-11-22T23:37:22;35.40;;;18.05;;
83717;SDS011;73701;52.234;21.288;2023-11-22T23:39:48;30.93;;;15.10;;
83717;SDS011;73701;52.234;21.288;2023-11-22T23:42:16;36.30;;;15.80;;
83717;SDS011;73701;52.234;21.288;2023-11-22T23:44:42;35.00;;;17.00;;
83717;SDS011;73701;52.234;21.288;2023-11-22T23:47:07;38.38;;;17.95;;
83717;SDS011;73701;52.234;21.288;2023-11-22T23:49:34;31.90;;;16.02;;
83717;SDS011;73701;52.234;21.288;2023-11-22T23:52:00;32.28;;;15.02;;
83717;SDS011;73701;52.234;21.288;2023-11-22T23:54:26;41.38;;;18.52;;
83717;SDS011;73701;52.234;21.288;2023-11-22T23:56:51;34.92;;;15.77;;
83717;SDS011;73701;52.234;21.288;2023-11-22T23:59:16;27.43;;;15.23;;
